Time;durP1;ratioP1;P1;durP2;ratioP2;P2;SDS_P1;SDS_P2;PMS_P1;PMS_P2;Temp;Humidity;BMP_temperature;BMP_pressure;BME280_temperature;BME280_humidity;BME280_pressure;Samples;Min_cycle;Max_cycle;Signal;HPM_P1;HPM_P2
2023/03/05 00:03:41;;;;;;;10.95;4.68;;;;;;;1.99;100.00;101610.25;10213516;28;20145;-67
2023/03/05 00:08:37;;;;;;;10.23;4.82;;;;;;;2.00;100.00;101606.50;10211468;28;20069;-67
2023/03/05 00:13:35;;;;;;;12.60;4.45;;;;;;;2.00;100.00;101599.22;10220390;28;20037;-67
2023/03/05 00:18:32;;;;;;;15.00;4.78;;;;;;;2.07;100.00;101591.00;10219955;28;20670;-67
2023/03/05 00:23:28;;;;;;;9.85;4.30;;;;;;;2.09;100.00;101578.09;10218267;28;20072;-68
2023/03/05 00:28:25;;;;;;;7.75;3.90;;;;;;;2.12;100.00;101582.19;10225927;28;20046;-67
2023/03/05 00:33:21;;;;;;;14.25;4.20;;;;;;;2.06;100.00;101590.16;10216190;28;20420;-67
2023/03/05 00:38:18;;;;;;;9.35;4.22;;;;;;;2.08;100.00;101576.44;10225045;28;20571;-68
2023/03/05 00:43:14;;;;;;;10.65;4.50;;;;;;;1.97;100.00;101590.78;10220700;28;20069;-67
2023/03/05 00:48:11;;;;;;;6.95;4.40;;;;;;;1.69;100.00;101586.97;10216206;28;20463;-67
2023/03/05 00:53:07;;;;;;;12.85;5.25;;;;;;;1.36;100.00;101584.91;10214196;28;20427;-67
2023/03/05 00:58:04;;;;;;;9.98;5.97;;;;;;;1.46;100.00;101585.97;10222135;28;20078;-67
2023/03/05 01:03:00;;;;;;;11.60;5.05;;;;;;;1.47;100.00;101579.50;10215932;28;20046;-67
2023/03/05 01:07:56;;;;;;;14.52;4.97;;;;;;;1.53;100.00;101585.00;10209249;28;20049;-67
2023/03/05 01:12:53;;;;;;;9.05;5.53;;;;;;;1.51;100.00;101576.31;10216282;28;20045;-67
2023/03/05 01:17:50;;;;;;;9.18;5.05;;;;;;;1.34;100.00;101574.34;10221473;28;20045;-67
2023/03/05 01:22:47;;;;;;;9.43;5.22;;;;;;;1.27;100.00;101565.56;10212385;28;20538;-67
2023/03/05 01:27:43;;;;;;;10.85;6.35;;;;;;;1.24;100.00;101574.13;10221835;28;20121;-67
2023/03/05 01:32:40;;;;;;;12.10;6.13;;;;;;;1.12;100.00;101578.69;10215520;28;20038;-67
2023/03/05 01:37:37;;;;;;;13.90;5.55;;;;;;;1.18;100.00;101577.75;10217339;28;20513;-67
2023/03/05 01:42:33;;;;;;;10.57;5.82;;;;;;;1.28;100.00;101561.81;10215947;28;20070;-67
2023/03/05 01:47:30;;;;;;;13.95;6.10;;;;;;;1.21;100.00;101556.56;10220939;28;20495;-67
2023/03/05 01:52:30;;;;;;;7.38;5.68;;;;;;;1.17;100.00;101554.56;10217849;28;20144;-67
2023/03/05 01:57:33;;;;;;;8.32;6.03;;;;;;;1.19;100.00;101557.84;10223165;28;20081;-67
2023/03/05 02:02:31;;;;;;;10.50;6.22;;;;;;;1.20;100.00;101548.69;10212878;28;20045;-67
2023/03/05 02:07:29;;;;;;;11.48;6.47;;;;;;;1.22;100.00;101541.19;10214420;28;20053;-67
2023/03/05 02:12:26;;;;;;;8.15;6.18;;;;;;;1.17;100.00;101543.78;10219553;28;20130;-67
2023/03/05 02:17:25;;;;;;;12.50;6.05;;;;;;;0.99;100.00;101540.16;10219682;28;20128;-67
2023/03/05 02:22:23;;;;;;;7.82;5.82;;;;;;;0.94;100.00;101533.84;10211123;28;20341;-67
2023/03/05 02:27:26;;;;;;;6.93;6.28;;;;;;;0.83;100.00;101522.00;10217643;28;20046;-67
2023/03/05 02:32:22;;;;;;;8.95;6.15;;;;;;;0.98;100.00;101525.06;10224902;28;20515;-67
2023/03/05 02:37:18;;;;;;;10.75;6.35;;;;;;;1.03;100.00;101514.38;10203961;28;20100;-67
2023/03/05 02:42:15;;;;;;;15.82;6.40;;;;;;;1.09;100.00;101509.97;10215901;28;20091;-67
2023/03/05 02:47:11;;;;;;;6.72;6.03;;;;;;;1.11;100.00;101509.69;10211088;28;20069;-67
2023/03/05 02:52:08;;;;;;;8.43;5.82;;;;;;;1.00;100.00;101517.56;10204575;28;20104;-67
2023/03/05 02:57:04;;;;;;;8.45;5.40;;;;;;;0.99;100.00;101502.44;10203564;28;20046;-67
2023/03/05 03:02:01;;;;;;;6.85;5.13;;;;;;;0.91;100.00;101500.13;10217526;28;20046;-66
2023/03/05 03:06:58;;;;;;;9.88;5.80;;;;;;;0.88;100.00;101487.09;10214650;28;20056;-67
2023/03/05 03:11:54;;;;;;;10.20;6.00;;;;;;;0.80;100.00;101480.19;10211691;28;20073;-66
2023/03/05 03:16:50;;;;;;;10.75;6.50;;;;;;;0.84;100.00;101476.00;10210197;28;20046;-67
2023/03/05 03:21:49;;;;;;;11.52;6.53;;;;;;;0.84;100.00;101469.78;10210478;28;20049;-67
2023/03/05 03:26:45;;;;;;;8.98;5.50;;;;;;;0.78;100.00;101459.97;10229637;28;20102;-67
2023/03/05 03:31:44;;;;;;;6.88;6.18;;;;;;;0.78;100.00;101476.09;10210110;28;20050;-67
2023/03/05 03:36:42;;;;;;;8.73;5.82;;;;;;;0.85;100.00;101468.72;10219496;28;20077;-67
2023/03/05 03:41:44;;;;;;;7.10;5.90;;;;;;;0.81;100.00;101454.09;10209378;28;20064;-67
2023/03/05 03:46:43;;;;;;;8.18;6.72;;;;;;;0.65;100.00;101444.03;10212329;28;20077;-67
2023/03/05 03:51:39;;;;;;;8.32;6.63;;;;;;;0.54;100.00;101443.81;10217951;28;20072;-67
2023/03/05 03:56:36;;;;;;;15.82;7.00;;;;;;;0.41;100.00;101438.63;10229056;28;20636;-67
2023/03/05 04:01:32;;;;;;;12.02;6.75;;;;;;;0.41;100.00;101435.94;10216751;28;20079;-67
2023/03/05 04:06:29;;;;;;;9.20;6.53;;;;;;;0.48;100.00;101430.47;10216247;28;20045;-67
2023/03/05 04:11:25;;;;;;;13.00;6.38;;;;;;;0.54;100.00;101435.72;10211952;28;20046;-67
2023/03/05 04:16:22;;;;;;;8.93;6.60;;;;;;;0.54;100.00;101427.66;10213607;28;20046;-67
2023/03/05 04:21:18;;;;;;;11.95;7.43;;;;;;;0.61;100.00;101422.97;10217464;28;20079;-67
2023/03/05 04:26:15;;;;;;;11.68;7.88;;;;;;;0.62;100.00;101419.22;10212442;28;20042;-67
2023/03/05 04:31:11;;;;;;;9.98;8.63;;;;;;;0.65;100.00;101417.13;10207252;28;20049;-67
2023/03/05 04:36:08;;;;;;;13.20;8.70;;;;;;;0.76;100.00;101413.59;10211476;28;20121;-67
2023/03/05 04:41:04;;;;;;;10.43;8.20;;;;;;;0.77;100.00;101409.88;10212788;28;20046;-67
2023/03/05 04:46:01;;;;;;;12.52;7.28;;;;;;;0.70;100.00;101395.72;10215445;28;20042;-67
2023/03/05 04:50:57;;;;;;;12.73;7.35;;;;;;;0.75;100.00;101393.13;10217184;28;20128;-67
2023/03/05 04:55:54;;;;;;;10.90;6.82;;;;;;;0.63;100.00;101383.19;10227732;28;20046;-67
2023/03/05 05:00:51;;;;;;;7.75;6.38;;;;;;;0.69;100.00;101381.41;10222768;28;20075;-67
2023/03/05 05:05:53;;;;;;;10.23;6.25;;;;;;;0.75;100.00;101368.91;10224330;28;20046;-67
2023/03/05 05:11:00;;;;;;;;;;;;;;;0.89;100.00;101359.50;10214724;28;20076;-67
2023/03/05 05:15:56;;;;;;;12.65;6.72;;;;;;;0.85;100.00;101361.03;10226097;28;19929;-72
2023/03/05 05:20:53;;;;;;;12.57;7.90;;;;;;;0.84;100.00;101362.09;10221384;28;20068;-72
2023/03/05 05:26:00;;;;;;;9.95;7.28;;;;;;;0.86;100.00;101361.84;10218595;28;20042;-72
2023/03/05 05:30:57;;;;;;;7.75;6.20;;;;;;;0.73;100.00;101354.88;10233115;28;20081;-73
2023/03/05 05:35:53;;;;;;;9.65;6.30;;;;;;;0.72;100.00;101350.53;10216035;28;20065;-72
2023/03/05 05:40:50;;;;;;;8.48;7.07;;;;;;;0.80;100.00;101347.47;10224969;28;20537;-72
2023/03/05 05:45:46;;;;;;;7.40;6.20;;;;;;;0.79;100.00;101348.50;10220746;28;20436;-72
2023/03/05 05:50:43;;;;;;;11.88;6.88;;;;;;;0.84;100.00;101352.16;10222946;28;20084;-72
2023/03/05 05:55:40;;;;;;;10.15;6.35;;;;;;;0.79;100.00;101349.34;10217824;28;20503;-72
2023/03/05 06:00:36;;;;;;;8.95;5.97;;;;;;;0.80;100.00;101350.16;10220538;28;20488;-74
2023/03/05 06:05:33;;;;;;;12.85;6.63;;;;;;;0.79;100.00;101348.50;10214947;28;20048;-72
2023/03/05 06:10:29;;;;;;;8.63;6.07;;;;;;;0.79;100.00;101353.91;10214546;28;20387;-72
2023/03/05 06:15:26;;;;;;;14.35;6.40;;;;;;;0.84;100.00;101345.94;10212378;28;20100;-72
2023/03/05 06:20:22;;;;;;;7.88;6.50;;;;;;;0.82;100.00;101348.88;10211050;28;20068;-72
2023/03/05 06:25:19;;;;;;;7.55;5.68;;;;;;;0.88;100.00;101344.41;10218612;28;20128;-73
2023/03/05 06:30:15;;;;;;;10.60;5.82;;;;;;;0.80;100.00;101347.47;10216307;28;20053;-73
2023/03/05 06:35:12;;;;;;;12.60;6.15;;;;;;;0.84;100.00;101340.56;10208002;28;20104;-74
2023/03/05 06:40:10;;;;;;;10.00;6.80;;;;;;;0.91;100.00;101343.94;10219452;28;20100;-73
2023/03/05 06:45:07;;;;;;;6.55;5.90;;;;;;;0.98;100.00;101347.31;10210612;28;20072;-74
2023/03/05 06:50:04;;;;;;;7.07;6.35;;;;;;;1.09;100.00;101339.44;10215992;28;20077;-73
2023/03/05 06:55:00;;;;;;;9.25;6.03;;;;;;;0.91;100.00;101341.25;10215722;28;20777;-74
2023/03/05 06:59:56;;;;;;;9.20;5.70;;;;;;;0.93;100.00;101335.59;10213361;28;20807;-74
2023/03/05 07:04:53;;;;;;;6.40;5.70;;;;;;;0.93;100.00;101339.16;10215777;28;20159;-74
2023/03/05 07:09:51;;;;;;;7.15;6.00;;;;;;;1.09;100.00;101325.97;10210498;28;20135;-73
2023/03/05 07:14:48;;;;;;;7.70;6.53;;;;;;;1.18;100.00;101329.91;10219110;28;20045;-74
2023/03/05 07:19:44;;;;;;;8.27;6.75;;;;;;;1.18;100.00;101335.31;10217322;28;20077;-73
2023/03/05 07:24:41;;;;;;;7.00;5.80;;;;;;;1.16;100.00;101337.41;10212611;28;20406;-73
2023/03/05 07:29:37;;;;;;;8.50;5.80;;;;;;;1.19;100.00;101339.66;10209070;28;20129;-73
2023/03/05 07:34:36;;;;;;;7.70;5.80;;;;;;;1.20;100.00;101338.59;10205251;28;20041;-73
2023/03/05 07:39:32;;;;;;;9.38;5.85;;;;;;;1.27;100.00;101334.69;10221013;28;20045;-73
2023/03/05 07:44:29;;;;;;;7.68;6.20;;;;;;;1.25;100.00;101335.97;10209006;28;20077;-73
2023/03/05 07:49:25;;;;;;;9.63;6.22;;;;;;;1.34;100.00;101334.53;10207127;28;20396;-73
2023/03/05 07:54:22;;;;;;;11.32;6.30;;;;;;;1.36;100.00;101332.41;10214087;28;20042;-73
2023/03/05 07:59:18;;;;;;;7.63;5.47;;;;;;;1.32;100.00;101323.19;10208485;28;20467;-74
2023/03/05 08:04:14;;;;;;;7.75;5.68;;;;;;;1.33;100.00;101305.97;10211185;28;20045;-74
2023/03/05 08:09:12;;;;;;;7.40;5.20;;;;;;;1.54;100.00;101306.34;10212668;28;20060;-73
2023/03/05 08:14:09;;;;;;;7.65;5.00;;;;;;;1.55;100.00;101302.56;10214228;28;20491;-73
2023/03/05 08:19:05;;;;;;;7.00;5.70;;;;;;;1.70;100.00;101297.44;10212171;28;20037;-73
2023/03/05 08:24:04;;;;;;;10.48;6.10;;;;;;;1.71;100.00;101290.19;10212856;28;20044;-74
2023/03/05 08:29:02;;;;;;;8.75;6.35;;;;;;;1.79;100.00;101282.50;10214785;28;20073;-73
2023/03/05 08:34:00;;;;;;;6.70;6.00;;;;;;;1.67;100.00;101284.44;10222012;28;20041;-73
2023/03/05 08:38:58;;;;;;;11.25;6.40;;;;;;;1.82;100.00;101276.59;10222448;28;20056;-73
2023/03/05 08:43:55;;;;;;;7.03;6.00;;;;;;;1.97;100.00;101275.22;10224631;28;20042;-74
2023/03/05 08:48:51;;;;;;;8.80;6.40;;;;;;;2.07;100.00;101269.97;10219057;28;20104;-74
2023/03/05 08:53:48;;;;;;;6.63;5.78;;;;;;;2.27;100.00;101259.47;10215526;28;20034;-73
2023/03/05 08:58:46;;;;;;;9.48;5.78;;;;;;;2.21;100.00;101252.38;10216896;28;20064;-74
2023/03/05 09:03:42;;;;;;;8.60;4.82;;;;;;;2.12;100.00;101253.88;10219295;28;20042;-73
2023/03/05 09:08:39;;;;;;;8.27;5.82;;;;;;;2.52;100.00;101241.97;10215707;28;20129;-74
2023/03/05 09:13:35;;;;;;;9.90;5.32;;;;;;;2.76;100.00;101241.72;10215731;28;20037;-73
2023/03/05 09:18:35;;;;;;;10.57;6.07;;;;;;;2.69;100.00;101223.84;10231472;28;20041;-73
2023/03/05 09:23:31;;;;;;;26.40;12.85;;;;;;;3.05;100.00;101235.00;10218552;28;20054;-73
2023/03/05 09:28:28;;;;;;;9.80;6.55;;;;;;;3.12;100.00;101224.81;10215233;28;20042;-73
2023/03/05 09:33:25;;;;;;;7.95;5.50;;;;;;;3.32;100.00;101212.59;10222119;28;20084;-74
2023/03/05 09:38:22;;;;;;;5.72;5.20;;;;;;;3.74;100.00;101207.22;10229175;28;20511;-74
2023/03/05 09:43:30;;;;;;;8.68;5.63;;;;;;;3.52;100.00;101207.31;10211326;28;20052;-74
2023/03/05 09:48:44;;;;;;;7.32;5.85;;;;;;;3.25;100.00;101211.94;10226071;28;20608;-74
2023/03/05 09:53:55;;;;;;;7.93;5.32;;;;;;;2.46;100.00;101215.97;10221591;28;20570;-73
2023/03/05 09:58:57;;;;;;;11.65;5.10;;;;;;;2.26;100.00;101217.38;10224447;28;20053;-74
2023/03/05 10:04:02;;;;;;;9.63;5.47;;;;;;;2.41;100.00;101221.31;10225385;28;20626;-74
2023/03/05 10:09:20;;;;;;;6.82;5.00;;;;;;;2.31;100.00;101230.91;10229104;28;20128;-74
2023/03/05 10:14:22;;;;;;;10.70;5.95;;;;;;;2.40;100.00;101234.00;10225580;28;20088;-74
2023/03/05 10:19:57;;;;;;;6.95;5.50;;;;;;;2.33;100.00;101237.97;10227691;28;20703;-74
2023/03/05 10:25:03;;;;;;;8.23;5.68;;;;;;;2.18;100.00;101228.59;10212000;28;20069;-74
2023/03/05 10:30:20;;;;;;;8.32;5.35;;;;;;;2.38;100.00;101219.13;10224343;28;20460;-74
2023/03/05 10:35:45;;;;;;;6.70;4.90;;;;;;;2.53;100.00;101217.44;10212825;28;20476;-74
2023/03/05 10:40:45;;;;;;;6.47;5.65;;;;;;;3.15;100.00;101202.69;10222937;28;20076;-74
2023/03/05 10:45:46;;;;;;;7.82;5.00;;;;;;;3.71;100.00;101182.56;10223799;28;20052;-74
2023/03/05 10:50:55;;;;;;;7.25;5.20;;;;;;;3.92;100.00;101173.53;10217214;28;20406;-74
2023/03/05 10:55:55;;;;;;;5.50;4.95;;;;;;;4.48;100.00;101174.84;10216187;28;20079;-74
2023/03/05 11:01:09;;;;;;;5.80;5.07;;;;;;;4.73;100.00;101161.38;10211345;28;20578;-74
2023/03/05 11:06:06;;;;;;;8.98;4.80;;;;;;;4.10;100.00;101153.31;10209771;28;20045;-74
2023/03/05 11:11:09;;;;;;;5.63;4.88;;;;;;;4.88;100.00;101151.66;10213278;28;20081;-75
2023/03/05 11:16:14;;;;;;;11.45;5.28;;;;;;;4.77;100.00;101134.56;10222569;28;20566;-75
2023/03/05 11:21:19;;;;;;;10.50;5.53;;;;;;;4.23;100.00;101146.63;10213131;28;20049;-74
2023/03/05 11:26:20;;;;;;;12.13;5.07;;;;;;;3.75;100.00;101124.19;10217207;28;20042;-74
2023/03/05 11:31:17;;;;;;;6.45;5.60;;;;;;;3.67;100.00;101122.81;10222270;28;20049;-75
2023/03/05 11:36:38;;;;;;;5.53;5.03;;;;;;;4.36;100.00;101129.88;10216014;28;20116;-74
2023/03/05 11:41:44;;;;;;;6.15;5.55;;;;;;;4.47;100.00;101119.06;10204910;28;20127;-74
2023/03/05 11:46:45;;;;;;;6.05;5.32;;;;;;;4.05;100.00;101101.06;10213179;28;20049;-74
2023/03/05 11:52:19;;;;;;;6.30;5.80;;;;;;;5.42;100.00;101096.91;10209375;28;20523;-74
2023/03/05 11:57:17;;;;;;;5.90;5.40;;;;;;;5.27;100.00;101092.31;10210161;28;20081;-74
2023/03/05 12:02:23;;;;;;;5.70;5.07;;;;;;;5.25;100.00;101084.44;10206534;28;20075;-74
2023/03/05 12:07:33;;;;;;;7.55;5.65;;;;;;;6.00;100.00;101070.16;10212316;28;20052;-75
2023/03/05 12:12:56;;;;;;;6.65;6.05;;;;;;;6.60;100.00;101072.00;10216401;28;20051;-74
2023/03/05 12:18:39;;;;;;;8.40;5.70;;;;;;;5.55;100.00;101063.78;10211637;28;20073;-74
2023/03/05 12:23:51;;;;;;;6.10;5.55;;;;;;;5.39;100.00;101041.31;10192984;28;20049;-74
2023/03/05 12:28:54;;;;;;;8.57;5.47;;;;;;;5.91;100.00;101028.38;10215089;28;20042;-74
2023/03/05 12:33:51;;;;;;;7.00;4.85;;;;;;;5.40;100.00;101023.13;10206170;28;20136;-74
2023/03/05 12:38:50;;;;;;;10.43;5.50;;;;;;;5.07;100.00;101025.38;10208639;28;20047;-74
2023/03/05 12:44:05;;;;;;;5.28;4.82;;;;;;;5.31;100.00;101024.78;10210306;28;20038;-74
2023/03/05 12:49:17;;;;;;;5.30;4.80;;;;;;;5.15;100.00;101016.69;10216191;28;20050;-74
2023/03/05 12:54:28;;;;;;;5.50;4.65;;;;;;;4.79;100.00;101011.31;10209485;28;20084;-74
2023/03/05 12:59:35;;;;;;;10.20;4.68;;;;;;;4.50;100.00;101000.19;10211835;28;20615;-74
2023/03/05 13:04:40;;;;;;;6.07;4.97;;;;;;;4.60;100.00;100996.69;10209416;28;20053;-74
2023/03/05 13:09:37;;;;;;;6.80;4.80;;;;;;;4.59;100.00;101005.88;10207189;28;20088;-74
2023/03/05 13:14:44;;;;;;;4.97;4.47;;;;;;;4.28;100.00;100989.63;10218717;28;20049;-74
2023/03/05 13:19:41;;;;;;;4.78;4.38;;;;;;;4.26;100.00;100990.97;10218128;28;20053;-74
2023/03/05 13:24:37;;;;;;;6.18;4.18;;;;;;;4.38;100.00;100989.63;10221144;28;20041;-74
2023/03/05 13:29:34;;;;;;;8.95;4.40;;;;;;;4.13;100.00;100995.00;10205160;28;20049;-74
2023/03/05 13:34:35;;;;;;;7.60;4.45;;;;;;;4.26;100.00;100978.25;10212126;28;20051;-74
2023/03/05 13:40:15;;;;;;;6.97;4.45;;;;;;;6.01;100.00;100955.06;10223889;28;20041;-75
2023/03/05 13:45:30;;;;;;;11.30;6.65;;;;;;;6.01;100.00;100955.06;10213446;28;20145;-73
2023/03/05 13:50:35;;;;;;;6.20;5.13;;;;;;;5.96;100.00;100944.22;10233212;28;20107;-74
2023/03/05 13:55:31;;;;;;;5.13;4.38;;;;;;;5.68;100.00;100943.81;10221435;28;20525;-73
2023/03/05 14:00:30;;;;;;;6.32;3.83;;;;;;;5.11;100.00;100939.72;10224252;28;20041;-73
2023/03/05 14:05:27;;;;;;;7.20;4.30;;;;;;;5.11;100.00;100939.72;10223629;28;20049;-73
2023/03/05 14:10:34;;;;;;;5.75;4.13;;;;;;;4.71;100.00;100946.84;10226562;28;20359;-73
2023/03/05 14:15:34;;;;;;;6.63;3.50;;;;;;;4.76;100.00;100938.72;10220161;28;20041;-74
2023/03/05 14:20:30;;;;;;;5.65;3.80;;;;;;;4.47;100.00;100937.66;10219311;28;20474;-74
2023/03/05 14:25:28;;;;;;;6.35;4.10;;;;;;;4.38;100.00;100946.31;10219599;28;20054;-73
2023/03/05 14:30:25;;;;;;;5.40;4.32;;;;;;;4.08;100.00;100922.75;10221729;28;20045;-74
2023/03/05 14:35:25;;;;;;;5.13;3.83;;;;;;;4.22;100.00;100917.59;10227025;28;20060;-74
2023/03/05 14:40:30;;;;;;;6.88;4.55;;;;;;;4.18;100.00;100911.13;10216226;28;20217;-73
2023/03/05 14:45:38;;;;;;;7.88;3.83;;;;;;;4.28;100.00;100905.72;10220059;28;20411;-74
2023/03/05 14:50:42;;;;;;;6.15;3.70;;;;;;;4.21;100.00;100894.34;10222979;28;20037;-74
2023/03/05 14:55:41;;;;;;;5.15;3.45;;;;;;;4.22;100.00;100895.97;10228883;28;20503;-74
2023/03/05 15:00:38;;;;;;;7.28;4.07;;;;;;;4.04;100.00;100882.97;10221619;28;20132;-74
2023/03/05 15:05:36;;;;;;;9.68;5.43;;;;;;;3.96;100.00;100893.25;10214914;28;20060;-74
2023/03/05 15:10:32;;;;;;;7.55;4.10;;;;;;;3.68;100.00;100885.63;10222846;28;20088;-74
2023/03/05 15:15:28;;;;;;;6.68;4.25;;;;;;;3.57;100.00;100874.81;10217918;28;20184;-74
2023/03/05 15:20:28;;;;;;;8.52;4.20;;;;;;;3.63;100.00;100877.53;10230144;28;20099;-74
2023/03/05 15:25:27;;;;;;;7.75;3.83;;;;;;;3.62;100.00;100870.47;10212987;28;20068;-73
2023/03/05 15:30:26;;;;;;;15.55;5.45;;;;;;;3.63;100.00;100861.28;10222279;28;20392;-73
2023/03/05 15:35:24;;;;;;;8.98;4.72;;;;;;;3.60;100.00;100870.75;10221070;28;20053;-74
2023/03/05 15:40:21;;;;;;;9.85;5.03;;;;;;;3.40;100.00;100868.81;10217023;28;20451;-73
2023/03/05 15:45:18;;;;;;;9.50;4.50;;;;;;;3.24;100.00;100865.22;10226086;28;20041;-73
2023/03/05 15:50:14;;;;;;;5.70;4.10;;;;;;;3.21;100.00;100864.97;10223042;28;20085;-73
2023/03/05 15:55:11;;;;;;;8.65;5.43;;;;;;;3.16;100.00;100863.88;10224515;28;20132;-73
2023/03/05 16:00:09;;;;;;;8.25;4.97;;;;;;;3.33;100.00;100857.44;10225167;28;20072;-73
2023/03/05 16:05:06;;;;;;;4.75;3.72;;;;;;;3.08;100.00;100856.25;10209839;28;20069;-73
2023/03/05 16:10:04;;;;;;;6.75;4.53;;;;;;;3.06;100.00;100853.00;10227857;28;20103;-73
2023/03/05 16:15:01;;;;;;;4.25;3.80;;;;;;;2.85;100.00;100843.19;10203682;28;20511;-73
2023/03/05 16:19:58;;;;;;;6.25;4.00;;;;;;;2.85;100.00;100845.91;10230347;28;20061;-73
2023/03/05 16:24:55;;;;;;;6.05;3.90;;;;;;;2.70;100.00;100839.34;10221543;28;20064;-73
2023/03/05 16:29:51;;;;;;;6.75;4.40;;;;;;;2.60;100.00;100833.06;10223009;28;20057;-72
2023/03/05 16:34:48;;;;;;;4.88;4.10;;;;;;;2.72;100.00;100831.81;10218383;28;20038;-73
2023/03/05 16:39:45;;;;;;;6.18;5.30;;;;;;;2.64;100.00;100828.78;10215872;28;20081;-73
2023/03/05 16:44:42;;;;;;;7.95;4.90;;;;;;;2.64;100.00;100823.38;10207876;28;20089;-74
2023/03/05 16:49:38;;;;;;;13.00;5.55;;;;;;;2.65;100.00;100825.81;10211254;28;20095;-73
2023/03/05 16:54:35;;;;;;;5.35;4.78;;;;;;;2.48;100.00;100822.47;10210656;28;20439;-74
2023/03/05 16:59:32;;;;;;;9.32;5.93;;;;;;;2.59;100.00;100831.47;10215618;28;20050;-71
2023/03/05 17:04:28;;;;;;;5.57;4.70;;;;;;;2.29;100.00;100828.31;10213022;28;20566;-70
2023/03/05 17:09:25;;;;;;;20.92;5.55;;;;;;;2.23;100.00;100828.56;10214348;28;20069;-73
2023/03/05 17:14:21;;;;;;;5.80;4.72;;;;;;;2.07;100.00;100824.94;10215826;28;20046;-72
2023/03/05 17:19:18;;;;;;;6.47;4.72;;;;;;;2.05;100.00;100824.38;10218144;28;20677;-73
2023/03/05 17:24:14;;;;;;;8.50;5.45;;;;;;;2.01;100.00;100820.56;10216335;28;20053;-73
2023/03/05 17:29:11;;;;;;;8.18;6.03;;;;;;;1.85;100.00;100828.50;10217234;28;20049;-73
2023/03/05 17:34:08;;;;;;;6.30;5.53;;;;;;;1.93;100.00;100829.09;10219438;28;20059;-72
2023/03/05 17:39:04;;;;;;;8.57;6.35;;;;;;;1.95;100.00;100832.34;10215124;28;20073;-72
2023/03/05 17:44:01;;;;;;;11.43;6.30;;;;;;;1.72;100.00;100831.66;10213083;28;20052;-73
2023/03/05 17:48:58;;;;;;;7.60;6.22;;;;;;;1.63;100.00;100833.19;10226240;28;20057;-73
2023/03/05 17:53:54;;;;;;;7.47;5.85;;;;;;;1.56;100.00;100821.78;10226489;28;20526;-73
2023/03/05 17:58:51;;;;;;;8.43;6.30;;;;;;;1.50;100.00;100820.09;10230367;28;20069;-73
2023/03/05 18:03:48;;;;;;;7.10;6.40;;;;;;;1.63;100.00;100830.47;10224314;28;20128;-73
2023/03/05 18:08:44;;;;;;;7.72;6.75;;;;;;;1.60;100.00;100825.59;10225677;28;20129;-72
2023/03/05 18:13:41;;;;;;;11.13;7.03;;;;;;;1.58;100.00;100823.16;10219695;28;20042;-72
2023/03/05 18:18:38;;;;;;;8.80;6.65;;;;;;;1.36;100.00;100817.81;10226793;28;20068;-73
2023/03/05 18:23:35;;;;;;;10.32;6.18;;;;;;;1.23;100.00;100815.50;10221381;28;20049;-73
2023/03/05 18:28:31;;;;;;;7.38;6.60;;;;;;;1.28;100.00;100807.50;10220831;28;20396;-72
2023/03/05 18:33:28;;;;;;;8.02;7.18;;;;;;;1.42;100.00;100803.34;10219273;28;20393;-73
2023/03/05 18:38:26;;;;;;;8.82;7.57;;;;;;;1.38;100.00;100802.22;10222419;28;20065;-72
2023/03/05 18:43:23;;;;;;;8.20;7.07;;;;;;;1.43;100.00;100787.97;10226053;28;20081;-73
2023/03/05 18:48:21;;;;;;;9.57;7.15;;;;;;;1.27;100.00;100784.31;10218967;28;20053;-72
2023/03/05 18:53:19;;;;;;;13.15;8.48;;;;;;;1.59;100.00;100770.06;10204781;28;20499;-72
2023/03/05 18:58:16;;;;;;;7.85;7.10;;;;;;;1.55;100.00;100779.72;10221562;28;20494;-74
2023/03/05 19:03:14;;;;;;;7.45;6.75;;;;;;;1.65;100.00;100769.84;10215556;28;20064;-72
2023/03/05 19:08:11;;;;;;;7.80;7.10;;;;;;;1.42;100.00;100754.84;10222448;28;20084;-72
2023/03/05 19:23:56;;;;;;;9.52;7.03;;;;;;;1.35;100.00;100743.47;10210940;28;20072;-74
2023/03/05 19:28:53;;;;;;;9.43;7.80;;;;;;;1.43;100.00;100734.91;10224084;28;20579;-74
2023/03/05 19:33:50;;;;;;;10.43;8.52;;;;;;;1.46;100.00;100728.19;10220707;28;20069;-75
2023/03/05 19:38:46;;;;;;;10.52;9.00;;;;;;;1.53;100.00;100723.38;10223966;28;20621;-74
2023/03/05 19:43:46;;;;;;;11.00;8.25;;;;;;;1.42;100.00;100722.50;10205340;28;20136;-74
2023/03/05 19:48:42;;;;;;;11.95;9.30;;;;;;;1.42;100.00;100719.81;10217836;28;20091;-75
2023/03/05 19:53:40;;;;;;;13.02;9.13;;;;;;;1.28;100.00;100705.16;10217363;28;20042;-73
2023/03/05 19:58:37;;;;;;;14.57;9.60;;;;;;;1.34;100.00;100703.28;10223517;28;20056;-74
2023/03/05 20:03:33;;;;;;;11.50;8.98;;;;;;;1.33;100.00;100699.78;10212157;28;20041;-74
2023/03/05 20:08:30;;;;;;;9.90;8.70;;;;;;;1.36;100.00;100696.56;10212668;28;20053;-74
2023/03/05 20:13:28;;;;;;;9.68;8.68;;;;;;;1.25;100.00;100697.56;10219652;28;20072;-73
2023/03/05 20:18:24;;;;;;;9.48;8.30;;;;;;;1.26;100.00;100693.81;10227893;28;20128;-73
2023/03/05 20:23:21;;;;;;;7.63;6.70;;;;;;;0.70;100.00;100698.66;10222121;28;20399;-74
2023/03/05 20:28:24;;;;;;;7.75;7.15;;;;;;;0.82;100.00;100685.84;10230957;28;20422;-74
2023/03/05 20:33:21;;;;;;;8.07;7.40;;;;;;;0.82;100.00;100680.47;10221040;28;20046;-73
2023/03/05 20:38:30;;;;;;;7.95;7.15;;;;;;;0.97;100.00;100672.53;10229376;28;20485;-73
2023/03/05 20:43:30;;;;;;;7.82;7.15;;;;;;;0.90;100.00;100665.72;10222109;28;20255;-73
2023/03/05 20:48:32;;;;;;;7.45;6.75;;;;;;;0.94;100.00;100664.97;10208727;28;20630;-74
2023/03/05 20:53:28;;;;;;;8.70;7.90;;;;;;;0.91;100.00;100665.50;10208171;28;20125;-72
2023/03/05 20:58:25;;;;;;;8.10;7.50;;;;;;;0.77;100.00;100664.28;10228667;28;20081;-72
2023/03/05 21:03:21;;;;;;;8.43;7.63;;;;;;;0.76;100.00;100659.94;10227200;28;20168;-72
2023/03/05 21:08:21;;;;;;;9.43;8.55;;;;;;;0.86;100.00;100653.84;10216770;28;20141;-71
2023/03/05 21:13:17;;;;;;;8.98;8.20;;;;;;;0.97;100.00;100642.09;10205979;28;20073;-71
2023/03/05 21:18:14;;;;;;;12.25;9.32;;;;;;;0.99;100.00;100632.69;10224226;28;20069;-72
2023/03/05 21:23:10;;;;;;;9.23;8.32;;;;;;;0.97;100.00;100621.38;10210990;28;20060;-73
2023/03/05 21:28:16;;;;;;;8.60;7.75;;;;;;;0.99;100.00;100616.53;10210048;28;20092;-73
2023/03/05 21:33:16;;;;;;;8.43;7.53;;;;;;;0.97;100.00;100621.38;10199872;28;20132;-73
2023/03/05 21:38:13;;;;;;;9.18;7.95;;;;;;;0.97;100.00;100617.88;10214483;28;20164;-73
2023/03/05 21:43:11;;;;;;;8.88;8.07;;;;;;;0.99;100.00;100611.16;10225205;28;20053;-74
2023/03/05 21:48:08;;;;;;;10.02;9.02;;;;;;;0.92;100.00;100615.94;10221507;28;20038;-73
2023/03/05 21:53:04;;;;;;;11.50;9.68;;;;;;;1.04;100.00;100602.31;10213911;28;20659;-73
2023/03/05 21:58:01;;;;;;;10.60;9.50;;;;;;;0.96;100.00;100598.22;10237099;28;20669;-73
2023/03/05 22:02:57;;;;;;;11.40;10.18;;;;;;;0.98;100.00;100596.09;10208407;28;20054;-72
2023/03/05 22:07:55;;;;;;;12.60;11.27;;;;;;;0.97;100.00;100596.34;10207132;28;20737;-72
2023/03/05 22:18:01;;;;;;;15.93;13.35;;;;;;;0.80;100.00;100586.50;10223396;28;20046;-73
2023/03/05 22:22:57;;;;;;;16.95;14.65;;;;;;;0.80;100.00;100585.69;10213626;28;20057;-73
2023/03/05 22:27:53;;;;;;;15.13;13.43;;;;;;;0.88;100.00;100582.53;10220266;28;20136;-73
2023/03/05 22:32:50;;;;;;;15.32;13.02;;;;;;;0.91;100.00;100576.66;10205110;28;20076;-72
2023/03/05 22:37:47;;;;;;;15.23;12.98;;;;;;;0.76;100.00;100573.81;10208859;28;20125;-72
2023/03/05 22:42:44;;;;;;;15.40;13.07;;;;;;;0.72;100.00;100578.09;10211650;28;21096;-72
2023/03/05 22:47:40;;;;;;;16.70;13.40;;;;;;;0.85;100.00;100585.75;10215981;28;20092;-72
2023/03/05 22:52:37;;;;;;;16.63;13.23;;;;;;;0.88;100.00;100577.16;10221046;28;20041;-72
2023/03/05 22:57:33;;;;;;;15.98;13.43;;;;;;;0.82;100.00;100578.19;10210910;28;20085;-73
2023/03/05 23:02:30;;;;;;;15.48;13.88;;;;;;;0.92;100.00;100572.88;10209286;28;20491;-73
2023/03/05 23:07:30;;;;;;;16.25;12.50;;;;;;;0.96;100.00;100567.81;10206879;28;20581;-73